sensor_id;sensor_type;location;lat;lon;timestamp;pressure;altitude;pressure_sealevel;temperature;humidity
12203;BME280;6164;42.178;24.622;2023-02-28T00:00:13;100153.69;;;8.71;100.00
12203;BME280;6164;42.178;24.622;2023-02-28T00:02:41;100162.56;;;8.60;100.00
12203;BME280;6164;42.178;24.622;2023-02-28T00:05:08;100167.97;;;8.59;100.00
12203;BME280;6164;42.178;24.622;2023-02-28T00:07:35;100167.41;;;8.55;100.00
12203;BME280;6164;42.178;24.622;2023-02-28T00:10:03;100167.56;;;8.54;100.00
12203;BME280;6164;42.178;24.622;2023-02-28T00:12:31;100165.38;;;8.49;100.00
12203;BME280;6164;42.178;24.622;2023-02-28T00:14:57;100171.84;;;8.64;100.00
12203;BME280;6164;42.178;24.622;2023-02-28T00:17:24;100171.13;;;8.72;100.00
12203;BME280;6164;42.178;24.622;2023-02-28T00:19:51;100163.66;;;8.67;100.00
12203;BME280;6164;42.178;24.622;2023-02-28T00:22:20;100161.00;;;8.77;100.00
12203;BME280;6164;42.178;24.622;2023-02-28T00:24:47;100165.97;;;8.89;100.00
12203;BME280;6164;42.178;24.622;2023-02-28T00:27:15;100170.09;;;8.92;100.00
12203;BME280;6164;42.178;24.622;2023-02-28T00:29:41;100174.78;;;8.98;100.00
12203;BME280;6164;42.178;24.622;2023-02-28T00:32:08;100174.22;;;9.04;100.00
12203;BME280;6164;42.178;24.622;2023-02-28T00:34:34;100178.06;;;9.09;100.00
12203;BME280;6164;42.178;24.622;2023-02-28T00:37:03;100179.16;;;9.16;100.00
12203;BME280;6164;42.178;24.622;2023-02-28T00:39:29;100176.53;;;9.16;100.00
12203;BME280;6164;42.178;24.622;2023-02-28T00:41:56;100169.84;;;9.22;100.00
12203;BME280;6164;42.178;24.622;2023-02-28T00:44:24;100108.72;;;8.91;100.00
12203;BME280;6164;42.178;24.622;2023-02-28T00:46:50;100164.59;;;9.22;100.00
12203;BME280;6164;42.178;24.622;2023-02-28T00:49:19;100165.13;;;9.25;100.00
12203;BME280;6164;42.178;24.622;2023-02-28T00:51:45;100164.84;;;9.28;100.00
12203;BME280;6164;42.178;24.622;2023-02-28T00:54:12;100158.34;;;9.23;100.00
12203;BME280;6164;42.178;24.622;2023-02-28T00:56:38;100150.44;;;9.23;100.00
12203;BME280;6164;42.178;24.622;2023-02-28T00:59:05;100150.34;;;9.15;100.00
12203;BME280;6164;42.178;24.622;2023-02-28T01:01:32;100150.38;;;9.05;100.00
12203;BME280;6164;42.178;24.622;2023-02-28T01:03:59;100161.63;;;8.98;100.00
12203;BME280;6164;42.178;24.622;2023-02-28T01:06:26;100156.78;;;8.93;100.00
12203;BME280;6164;42.178;24.622;2023-02-28T01:08:52;100161.22;;;8.93;100.00
12203;BME280;6164;42.178;24.622;2023-02-28T01:11:19;100171.25;;;8.89;100.00
12203;BME280;6164;42.178;24.622;2023-02-28T01:13:45;100172.22;;;8.79;100.00
12203;BME280;6164;42.178;24.622;2023-02-28T01:16:12;100174.69;;;8.90;100.00
12203;BME280;6164;42.178;24.622;2023-02-28T01:18:40;100167.63;;;8.90;100.00
12203;BME280;6164;42.178;24.622;2023-02-28T01:21:08;100181.19;;;8.95;100.00
12203;BME280;6164;42.178;24.622;2023-02-28T01:23:35;100179.66;;;9.02;100.00
12203;BME280;6164;42.178;24.622;2023-02-28T01:26:03;100176.28;;;9.10;100.00
12203;BME280;6164;42.178;24.622;2023-02-28T01:28:30;100172.94;;;9.17;100.00
12203;BME280;6164;42.178;24.622;2023-02-28T01:30:56;100169.56;;;9.25;100.00
12203;BME280;6164;42.178;24.622;2023-02-28T01:33:23;100178.53;;;9.32;100.00
12203;BME280;6164;42.178;24.622;2023-02-28T01:35:56;100190.13;;;9.39;100.00
12203;BME280;6164;42.178;24.622;2023-02-28T01:38:23;100192.06;;;9.47;100.00
12203;BME280;6164;42.178;24.622;2023-02-28T01:40:49;100190.50;;;9.54;100.00
12203;BME280;6164;42.178;24.622;2023-02-28T01:43:19;100194.34;;;9.59;100.00
12203;BME280;6164;42.178;24.622;2023-02-28T01:45:46;100206.41;;;9.62;100.00
12203;BME280;6164;42.178;24.622;2023-02-28T01:48:12;100211.38;;;9.65;100.00
12203;BME280;6164;42.178;24.622;2023-02-28T01:50:39;100205.56;;;9.61;100.00
12203;BME280;6164;42.178;24.622;2023-02-28T01:53:10;100201.56;;;9.57;100.00
12203;BME280;6164;42.178;24.622;2023-02-28T01:55:38;100199.38;;;9.53;100.00
12203;BME280;6164;42.178;24.622;2023-02-28T01:58:05;100200.66;;;9.49;100.00
12203;BME280;6164;42.178;24.622;2023-02-28T02:00:34;100210.50;;;9.47;100.00
12203;BME280;6164;42.178;24.622;2023-02-28T02:03:01;100218.56;;;9.45;100.00
12203;BME280;6164;42.178;24.622;2023-02-28T02:05:31;100220.50;;;9.43;100.00
12203;BME280;6164;42.178;24.622;2023-02-28T02:08:01;100231.06;;;9.43;100.00
12203;BME280;6164;42.178;24.622;2023-02-28T02:10:31;100230.91;;;9.45;100.00
12203;BME280;6164;42.178;24.622;2023-02-28T02:13:10;100231.44;;;9.48;100.00
12203;BME280;6164;42.178;24.622;2023-02-28T02:15:41;100226.41;;;9.55;100.00
12203;BME280;6164;42.178;24.622;2023-02-28T02:18:11;100227.50;;;9.62;100.00
12203;BME280;6164;42.178;24.622;2023-02-28T02:23:33;100236.84;;;9.74;100.00
12203;BME280;6164;42.178;24.622;2023-02-28T02:26:18;100236.44;;;9.78;100.00
12203;BME280;6164;42.178;24.622;2023-02-28T02:28:54;100238.78;;;9.81;100.00
12203;BME280;6164;42.178;24.622;2023-02-28T02:31:33;100245.00;;;9.80;100.00
12203;BME280;6164;42.178;24.622;2023-02-28T02:36:53;100258.25;;;9.71;100.00
12203;BME280;6164;42.178;24.622;2023-02-28T02:39:25;100256.88;;;9.67;100.00
12203;BME280;6164;42.178;24.622;2023-02-28T02:41:58;100264.25;;;9.63;100.00
12203;BME280;6164;42.178;24.622;2023-02-28T02:44:27;100260.78;;;9.63;100.00
12203;BME280;6164;42.178;24.622;2023-02-28T02:46:55;100260.38;;;9.58;100.00
12203;BME280;6164;42.178;24.622;2023-02-28T02:49:25;100269.13;;;9.58;100.00
12203;BME280;6164;42.178;24.622;2023-02-28T02:51:53;100278.53;;;9.61;100.00
12203;BME280;6164;42.178;24.622;2023-02-28T02:54:23;100268.69;;;9.63;100.00
12203;BME280;6164;42.178;24.622;2023-02-28T02:56:54;100274.66;;;9.65;100.00
12203;BME280;6164;42.178;24.622;2023-02-28T02:59:21;100276.44;;;9.64;100.00
12203;BME280;6164;42.178;24.622;2023-02-28T03:01:49;100281.88;;;9.63;100.00
12203;BME280;6164;42.178;24.622;2023-02-28T03:04:17;100288.28;;;9.60;100.00
12203;BME280;6164;42.178;24.622;2023-02-28T03:06:44;100297.00;;;9.61;100.00
12203;BME280;6164;42.178;24.622;2023-02-28T03:09:12;100302.41;;;9.59;100.00
12203;BME280;6164;42.178;24.622;2023-02-28T03:11:39;100309.06;;;9.63;100.00
12203;BME280;6164;42.178;24.622;2023-02-28T03:14:09;100313.22;;;9.66;100.00
12203;BME280;6164;42.178;24.622;2023-02-28T03:16:48;100313.59;;;9.71;100.00
12203;BME280;6164;42.178;24.622;2023-02-28T03:19:22;100320.03;;;9.68;100.00
12203;BME280;6164;42.178;24.622;2023-02-28T03:21:55;100317.94;;;9.72;100.00
12203;BME280;6164;42.178;24.622;2023-02-28T03:24:27;100325.69;;;9.73;100.00
12203;BME280;6164;42.178;24.622;2023-02-28T03:26:58;100315.00;;;9.75;100.00
12203;BME280;6164;42.178;24.622;2023-02-28T03:29:29;100320.28;;;9.75;100.00
12203;BME280;6164;42.178;24.622;2023-02-28T03:32:00;100317.94;;;9.72;100.00
12203;BME280;6164;42.178;24.622;2023-02-28T03:34:31;100320.97;;;9.77;100.00
12203;BME280;6164;42.178;24.622;2023-02-28T03:36:59;100329.69;;;9.77;100.00
12203;BME280;6164;42.178;24.622;2023-02-28T03:39:30;100326.09;;;9.78;100.00
12203;BME280;6164;42.178;24.622;2023-02-28T03:42:01;100330.22;;;9.81;100.00
12203;BME280;6164;42.178;24.622;2023-02-28T03:44:29;100334.38;;;9.83;100.00
12203;BME280;6164;42.178;24.622;2023-02-28T03:46:57;100342.97;;;9.85;100.00
12203;BME280;6164;42.178;24.622;2023-02-28T03:49:27;100346.44;;;9.86;100.00
12203;BME280;6164;42.178;24.622;2023-02-28T03:51:55;100351.41;;;9.89;100.00
12203;BME280;6164;42.178;24.622;2023-02-28T03:54:26;100358.22;;;9.91;100.00
12203;BME280;6164;42.178;24.622;2023-02-28T03:56:57;100359.03;;;9.92;100.00
12203;BME280;6164;42.178;24.622;2023-02-28T03:59:27;100364.19;;;9.93;100.00
12203;BME280;6164;42.178;24.622;2023-02-28T04:01:55;100369.97;;;9.97;100.00
12203;BME280;6164;42.178;24.622;2023-02-28T04:04:23;100363.06;;;9.96;100.00
12203;BME280;6164;42.178;24.622;2023-02-28T04:06:50;100362.22;;;9.95;100.00
12203;BME280;6164;42.178;24.622;2023-02-28T04:09:17;100360.56;;;9.94;100.00
12203;BME280;6164;42.178;24.622;2023-02-28T04:11:44;100369.31;;;9.95;100.00
12203;BME280;6164;42.178;24.622;2023-02-28T04:14:13;100374.84;;;9.92;100.00
12203;BME280;6164;42.178;24.622;2023-02-28T04:16:40;100379.47;;;9.90;100.00
12203;BME280;6164;42.178;24.622;2023-02-28T04:19:08;100387.00;;;9.85;100.00
12203;BME280;6164;42.178;24.622;2023-02-28T04:21:35;100387.53;;;9.79;100.00
12203;BME280;6164;42.178;24.622;2023-02-28T04:24:02;100393.94;;;9.76;100.00
12203;BME280;6164;42.178;24.622;2023-02-28T04:26:29;100386.19;;;9.75;100.00
12203;BME280;6164;42.178;24.622;2023-02-28T04:28:56;100391.59;;;9.73;100.00
12203;BME280;6164;42.178;24.622;2023-02-28T04:31:23;100396.31;;;9.70;100.00
12203;BME280;6164;42.178;24.622;2023-02-28T04:33:50;100393.28;;;9.65;100.00
12203;BME280;6164;42.178;24.622;2023-02-28T04:36:17;100394.38;;;9.62;100.00
12203;BME280;6164;42.178;24.622;2023-02-28T04:38:43;100394.38;;;9.62;100.00
12203;BME280;6164;42.178;24.622;2023-02-28T04:41:10;100385.13;;;9.58;100.00
12203;BME280;6164;42.178;24.622;2023-02-28T04:43:37;100381.78;;;9.56;100.00
12203;BME280;6164;42.178;24.622;2023-02-28T04:46:04;100387.91;;;9.57;100.00
12203;BME280;6164;42.178;24.622;2023-02-28T04:48:32;100382.91;;;9.54;100.00
12203;BME280;6164;42.178;24.622;2023-02-28T04:51:00;100384.03;;;9.51;100.00
12203;BME280;6164;42.178;24.622;2023-02-28T04:53:27;100396.50;;;9.49;100.00
12203;BME280;6164;42.178;24.622;2023-02-28T04:55:54;100398.88;;;9.43;100.00
12203;BME280;6164;42.178;24.622;2023-02-28T04:58:20;100396.66;;;9.38;100.00
12203;BME280;6164;42.178;24.622;2023-02-28T05:00:48;100402.09;;;9.37;100.00
12203;BME280;6164;42.178;24.622;2023-02-28T05:03:14;100405.81;;;9.34;100.00
12203;BME280;6164;42.178;24.622;2023-02-28T05:05:42;100407.09;;;9.30;100.00
12203;BME280;6164;42.178;24.622;2023-02-28T05:08:08;100415.28;;;9.27;100.00
12203;BME280;6164;42.178;24.622;2023-02-28T05:10:35;100413.75;;;9.24;100.00
12203;BME280;6164;42.178;24.622;2023-02-28T05:13:02;100415.41;;;9.25;100.00
12203;BME280;6164;42.178;24.622;2023-02-28T05:15:28;100420.41;;;9.28;100.00
12203;BME280;6164;42.178;24.622;2023-02-28T05:17:55;100422.91;;;9.30;100.00
12203;BME280;6164;42.178;24.622;2023-02-28T05:20:21;100430.66;;;9.31;100.00
12203;BME280;6164;42.178;24.622;2023-02-28T05:22:49;100422.31;;;9.36;100.00
12203;BME280;6164;42.178;24.622;2023-02-28T05:25:17;100432.47;;;9.41;100.00
12203;BME280;6164;42.178;24.622;2023-02-28T05:27:44;100437.16;;;9.47;100.00
12203;BME280;6164;42.178;24.622;2023-02-28T05:30:11;100435.22;;;9.49;100.00
12203;BME280;6164;42.178;24.622;2023-02-28T05:32:38;100446.03;;;9.55;100.00
12203;BME280;6164;42.178;24.622;2023-02-28T05:35:08;100444.75;;;9.59;100.00
12203;BME280;6164;42.178;24.622;2023-02-28T05:37:35;100455.88;;;9.63;100.00
12203;BME280;6164;42.178;24.622;2023-02-28T05:40:03;100450.31;;;9.66;100.00
12203;BME280;6164;42.178;24.622;2023-02-28T05:42:31;100448.91;;;9.71;100.00
12203;BME280;6164;42.178;24.622;2023-02-28T05:44:57;100451.13;;;9.76;100.00
12203;BME280;6164;42.178;24.622;2023-02-28T05:47:24;100445.28;;;9.82;100.00
12203;BME280;6164;42.178;24.622;2023-02-28T05:49:50;100456.81;;;9.81;100.00
12203;BME280;6164;42.178;24.622;2023-02-28T05:52:17;100459.69;;;9.87;100.00
12203;BME280;6164;42.178;24.622;2023-02-28T05:54:43;100452.47;;;9.89;100.00
12203;BME280;6164;42.178;24.622;2023-02-28T05:57:11;100444.13;;;9.94;100.00
12203;BME280;6164;42.178;24.622;2023-02-28T05:59:37;100452.03;;;9.94;100.00
12203;BME280;6164;42.178;24.622;2023-02-28T06:02:05;100451.91;;;9.95;100.00
12203;BME280;6164;42.178;24.622;2023-02-28T06:04:32;100460.06;;;10.02;100.00
12203;BME280;6164;42.178;24.622;2023-02-28T06:06:58;100457.72;;;10.08;100.00
12203;BME280;6164;42.178;24.622;2023-02-28T06:09:25;100468.53;;;10.15;100.00
12203;BME280;6164;42.178;24.622;2023-02-28T06:11:51;100470.59;;;10.21;100.00
12203;BME280;6164;42.178;24.622;2023-02-28T06:14:20;100466.84;;;10.23;100.00
12203;BME280;6164;42.178;24.622;2023-02-28T06:16:47;100474.06;;;10.21;100.00
12203;BME280;6164;42.178;24.622;2023-02-28T06:19:13;100467.28;;;10.19;100.00
12203;BME280;6164;42.178;24.622;2023-02-28T06:21:40;100474.34;;;10.18;100.00
12203;BME280;6164;42.178;24.622;2023-02-28T06:24:07;100471.31;;;10.13;100.00
12203;BME280;6164;42.178;24.622;2023-02-28T06:26:33;100476.19;;;10.18;100.00
12203;BME280;6164;42.178;24.622;2023-02-28T06:29:00;100480.72;;;10.25;100.00
12203;BME280;6164;42.178;24.622;2023-02-28T06:31:28;100478.78;;;10.27;100.00
12203;BME280;6164;42.178;24.622;2023-02-28T06:33:55;100478.47;;;10.30;100.00
12203;BME280;6164;42.178;24.622;2023-02-28T06:36:21;100486.84;;;10.26;100.00
12203;BME280;6164;42.178;24.622;2023-02-28T06:38:48;100488.50;;;10.27;100.00
12203;BME280;6164;42.178;24.622;2023-02-28T06:41:23;100487.09;;;10.32;100.00
12203;BME280;6164;42.178;24.622;2023-02-28T06:43:49;100483.00;;;10.38;100.00
12203;BME280;6164;42.178;24.622;2023-02-28T06:46:16;100484.25;;;10.43;100.00
12203;BME280;6164;42.178;24.622;2023-02-28T06:48:44;100483.00;;;10.47;100.00
12203;BME280;6164;42.178;24.622;2023-02-28T06:51:11;100487.97;;;10.50;100.00
12203;BME280;6164;42.178;24.622;2023-02-28T06:53:39;100486.84;;;10.53;100.00
12203;BME280;6164;42.178;24.622;2023-02-28T06:56:06;100497.94;;;10.56;100.00
12203;BME280;6164;42.178;24.622;2023-02-28T06:58:33;100500.59;;;10.56;100.00
12203;BME280;6164;42.178;24.622;2023-02-28T07:01:00;100503.63;;;10.61;100.00
12203;BME280;6164;42.178;24.622;2023-02-28T07:03:27;100509.59;;;10.63;100.00
12203;BME280;6164;42.178;24.622;2023-02-28T07:05:54;100506.97;;;10.63;100.00
12203;BME280;6164;42.178;24.622;2023-02-28T07:08:22;100503.56;;;10.71;100.00
12203;BME280;6164;42.178;24.622;2023-02-28T07:10:51;100503.41;;;10.73;100.00
12203;BME280;6164;42.178;24.622;2023-02-28T07:13:17;100502.47;;;10.74;100.00
12203;BME280;6164;42.178;24.622;2023-02-28T07:15:44;100488.81;;;10.78;100.00
12203;BME280;6164;42.178;24.622;2023-02-28T07:18:10;100499.06;;;10.81;100.00
12203;BME280;6164;42.178;24.622;2023-02-28T07:20:37;100503.09;;;10.85;100.00
12203;BME280;6164;42.178;24.622;2023-02-28T07:23:05;100498.19;;;10.90;100.00
12203;BME280;6164;42.178;24.622;2023-02-28T07:25:31;100511.41;;;10.90;100.00
12203;BME280;6164;42.178;24.622;2023-02-28T07:27:57;100508.75;;;10.90;100.00
12203;BME280;6164;42.178;24.622;2023-02-28T07:30:25;100511.81;;;10.86;100.00
12203;BME280;6164;42.178;24.622;2023-02-28T07:32:51;100530.47;;;10.84;100.00
12203;BME280;6164;42.178;24.622;2023-02-28T07:35:19;100522.59;;;10.75;100.00
12203;BME280;6164;42.178;24.622;2023-02-28T07:37:46;100522.16;;;10.79;100.00
12203;BME280;6164;42.178;24.622;2023-02-28T07:40:14;100520.34;;;10.80;100.00
12203;BME280;6164;42.178;24.622;2023-02-28T07:42:42;100533.84;;;10.77;100.00
12203;BME280;6164;42.178;24.622;2023-02-28T07:45:09;100533.16;;;10.75;100.00
12203;BME280;6164;42.178;24.622;2023-02-28T07:47:36;100523.97;;;10.79;100.00
12203;BME280;6164;42.178;24.622;2023-02-28T07:50:03;100527.97;;;10.83;100.00
12203;BME280;6164;42.178;24.622;2023-02-28T07:52:30;100522.03;;;10.81;100.00
12203;BME280;6164;42.178;24.622;2023-02-28T07:54:57;100517.25;;;10.84;100.00
12203;BME280;6164;42.178;24.622;2023-02-28T07:57:25;100518.78;;;10.87;100.00
12203;BME280;6164;42.178;24.622;2023-02-28T07:59:51;100521.28;;;10.88;100.00
12203;BME280;6164;42.178;24.622;2023-02-28T08:02:18;100515.25;;;10.96;100.00
12203;BME280;6164;42.178;24.622;2023-02-28T08:04:44;100512.03;;;11.02;100.00
12203;BME280;6164;42.178;24.622;2023-02-28T08:07:12;100514.53;;;11.03;100.00
12203;BME280;6164;42.178;24.622;2023-02-28T08:09:38;100526.03;;;11.02;100.00
12203;BME280;6164;42.178;24.622;2023-02-28T08:12:05;100522.44;;;11.03;100.00
12203;BME280;6164;42.178;24.622;2023-02-28T08:14:33;100530.53;;;11.02;100.00
12203;BME280;6164;42.178;24.622;2023-02-28T08:17:00;100535.13;;;11.00;100.00
12203;BME280;6164;42.178;24.622;2023-02-28T08:19:27;100528.19;;;10.99;100.00
12203;BME280;6164;42.178;24.622;2023-02-28T08:21:54;100531.50;;;11.01;100.00
12203;BME280;6164;42.178;24.622;2023-02-28T08:24:20;100529.69;;;11.01;100.00
12203;BME280;6164;42.178;24.622;2023-02-28T08:26:47;100532.47;;;11.00;100.00
12203;BME280;6164;42.178;24.622;2023-02-28T08:29:13;100531.41;;;10.93;100.00
12203;BME280;6164;42.178;24.622;2023-02-28T08:31:41;100534.72;;;10.95;100.00
12203;BME280;6164;42.178;24.622;2023-02-28T08:34:08;100543.91;;;10.91;100.00
12203;BME280;6164;42.178;24.622;2023-02-28T08:36:36;100537.44;;;10.85;100.00
12203;BME280;6164;42.178;24.622;2023-02-28T08:39:02;100537.34;;;10.77;100.00
12203;BME280;6164;42.178;24.622;2023-02-28T08:41:30;100539.84;;;10.79;100.00
12203;BME280;6164;42.178;24.622;2023-02-28T08:43:56;100533.41;;;10.81;100.00
12203;BME280;6164;42.178;24.622;2023-02-28T08:46:23;100529.66;;;10.84;100.00
12203;BME280;6164;42.178;24.622;2023-02-28T08:48:53;100529.50;;;10.85;100.00
12203;BME280;6164;42.178;24.622;2023-02-28T08:51:20;100526.41;;;10.90;100.00
12203;BME280;6164;42.178;24.622;2023-02-28T08:53:51;100537.13;;;10.88;100.00
12203;BME280;6164;42.178;24.622;2023-02-28T08:56:18;100544.47;;;10.94;100.00
12203;BME280;6164;42.178;24.622;2023-02-28T08:58:45;100542.50;;;10.96;100.00
12203;BME280;6164;42.178;24.622;2023-02-28T09:01:13;100542.06;;;11.01;100.00
12203;BME280;6164;42.178;24.622;2023-02-28T09:03:40;100541.91;;;11.02;100.00
12203;BME280;6164;42.178;24.622;2023-02-28T09:06:09;100542.59;;;11.04;100.00
12203;BME280;6164;42.178;24.622;2023-02-28T09:08:36;100534.50;;;11.06;100.00
12203;BME280;6164;42.178;24.622;2023-02-28T09:11:02;100532.56;;;11.08;100.00
12203;BME280;6164;42.178;24.622;2023-02-28T09:13:29;100544.94;;;11.07;100.00
12203;BME280;6164;42.178;24.622;2023-02-28T09:15:57;100539.25;;;11.02;100.00
12203;BME280;6164;42.178;24.622;2023-02-28T09:18:23;100540.25;;;11.01;100.00
12203;BME280;6164;42.178;24.622;2023-02-28T09:20:50;100536.72;;;11.10;100.00
12203;BME280;6164;42.178;24.622;2023-02-28T09:23:18;100528.50;;;11.13;100.00
12203;BME280;6164;42.178;24.622;2023-02-28T09:25:45;100528.66;;;11.12;100.00
12203;BME280;6164;42.178;24.622;2023-02-28T09:28:11;100521.16;;;11.07;100.00
12203;BME280;6164;42.178;24.622;2023-02-28T09:30:40;100521.75;;;11.01;100.00
12203;BME280;6164;42.178;24.622;2023-02-28T09:33:06;100515.09;;;10.97;100.00
12203;BME280;6164;42.178;24.622;2023-02-28T09:35:33;100516.22;;;10.95;100.00
12203;BME280;6164;42.178;24.622;2023-02-28T09:37:59;100513.13;;;10.99;100.00
12203;BME280;6164;42.178;24.622;2023-02-28T09:40:29;100511.88;;;11.03;100.00
12203;BME280;6164;42.178;24.622;2023-02-28T09:42:56;100515.63;;;11.01;100.00
12203;BME280;6164;42.178;24.622;2023-02-28T09:45:24;100515.47;;;11.02;100.00
12203;BME280;6164;42.178;24.622;2023-02-28T09:47:54;100512.44;;;10.97;100.00
12203;BME280;6164;42.178;24.622;2023-02-28T09:50:23;100510.88;;;11.04;100.00
12203;BME280;6164;42.178;24.622;2023-02-28T09:52:55;100513.00;;;11.01;100.00
12203;BME280;6164;42.178;24.622;2023-02-28T09:55:23;100505.16;;;11.09;100.00
12203;BME280;6164;42.178;24.622;2023-02-28T09:57:55;100500.25;;;11.14;100.00
12203;BME280;6164;42.178;24.622;2023-02-28T10:00:26;100489.25;;;11.18;100.00
12203;BME280;6164;42.178;24.622;2023-02-28T10:02:59;100486.00;;;11.24;100.00
12203;BME280;6164;42.178;24.622;2023-02-28T10:05:30;100479.72;;;11.25;100.00
12203;BME280;6164;42.178;24.622;2023-02-28T10:08:04;100478.69;;;11.18;100.00
12203;BME280;6164;42.178;24.622;2023-02-28T10:10:34;100483.34;;;11.24;100.00
12203;BME280;6164;42.178;24.622;2023-02-28T10:13:05;100488.25;;;11.19;100.00
12203;BME280;6164;42.178;24.622;2023-02-28T10:15:33;100484.94;;;11.17;100.00
12203;BME280;6164;42.178;24.622;2023-02-28T10:18:02;100480.25;;;11.11;100.00
12203;BME280;6164;42.178;24.622;2023-02-28T10:20:30;100476.38;;;11.06;100.00
12203;BME280;6164;42.178;24.622;2023-02-28T10:23:01;100476.75;;;11.11;100.00
12203;BME280;6164;42.178;24.622;2023-02-28T10:25:33;100479.41;;;11.11;100.00
12203;BME280;6164;42.178;24.622;2023-02-28T10:28:00;100481.09;;;11.12;100.00
12203;BME280;6164;42.178;24.622;2023-02-28T10:30:29;100482.44;;;11.16;100.00
12203;BME280;6164;42.178;24.622;2023-02-28T10:32:55;100471.31;;;11.12;100.00
12203;BME280;6164;42.178;24.622;2023-02-28T10:35:23;100486.53;;;11.10;100.00
12203;BME280;6164;42.178;24.622;2023-02-28T10:37:50;100477.59;;;11.11;100.00
12203;BME280;6164;42.178;24.622;2023-02-28T10:40:26;100475.50;;;11.15;100.00
12203;BME280;6164;42.178;24.622;2023-02-28T10:42:55;100476.84;;;11.19;100.00
12203;BME280;6164;42.178;24.622;2023-02-28T10:45:23;100477.97;;;11.16;100.00
12203;BME280;6164;42.178;24.622;2023-02-28T10:47:53;100475.66;;;11.13;100.00
12203;BME280;6164;42.178;24.622;2023-02-28T10:50:28;100469.06;;;11.00;100.00
12203;BME280;6164;42.178;24.622;2023-02-28T10:52:55;100469.59;;;11.03;100.00
12203;BME280;6164;42.178;24.622;2023-02-28T10:55:30;100461.81;;;11.02;100.00
12203;BME280;6164;42.178;24.622;2023-02-28T10:57:57;100459.59;;;10.97;100.00
12203;BME280;6164;42.178;24.622;2023-02-28T11:00:24;100458.72;;;10.89;100.00
12203;BME280;6164;42.178;24.622;2023-02-28T11:02:52;100454.94;;;10.91;100.00
12203;BME280;6164;42.178;24.622;2023-02-28T11:05:23;100456.47;;;10.94;100.00
12203;BME280;6164;42.178;24.622;2023-02-28T11:07:51;100466.41;;;10.82;100.00
12203;BME280;6164;42.178;24.622;2023-02-28T11:10:18;100463.78;;;10.82;100.00
12203;BME280;6164;42.178;24.622;2023-02-28T11:12:46;100452.59;;;10.88;100.00
12203;BME280;6164;42.178;24.622;2023-02-28T11:15:18;100448.81;;;10.91;100.00
12203;BME280;6164;42.178;24.622;2023-02-28T11:17:53;100447.25;;;10.98;100.00
12203;BME280;6164;42.178;24.622;2023-02-28T11:20:20;100446.13;;;11.00;100.00
12203;BME280;6164;42.178;24.622;2023-02-28T11:22:48;100446.78;;;11.02;100.00
12203;BME280;6164;42.178;24.622;2023-02-28T11:25:19;100447.25;;;10.98;100.00
12203;BME280;6164;42.178;24.622;2023-02-28T11:27:48;100450.72;;;10.98;100.00
12203;BME280;6164;42.178;24.622;2023-02-28T11:30:28;100449.97;;;10.88;100.00
12203;BME280;6164;42.178;24.622;2023-02-28T11:32:56;100458.41;;;10.92;100.00
12203;BME280;6164;42.178;24.622;2023-02-28T11:35:24;100448.97;;;10.89;100.00
12203;BME280;6164;42.178;24.622;2023-02-28T11:37:52;100455.84;;;10.82;100.00
12203;BME280;6164;42.178;24.622;2023-02-28T11:40:19;100450.84;;;10.79;100.00
12203;BME280;6164;42.178;24.622;2023-02-28T11:42:50;100445.50;;;10.89;100.00
12203;BME280;6164;42.178;24.622;2023-02-28T11:45:22;100442.19;;;10.87;100.00
12203;BME280;6164;42.178;24.622;2023-02-28T11:47:57;100436.91;;;10.87;100.00
12203;BME280;6164;42.178;24.622;2023-02-28T11:50:43;100426.50;;;10.85;100.00
12203;BME280;6164;42.178;24.622;2023-02-28T11:53:14;100427.53;;;10.75;100.00
12203;BME280;6164;42.178;24.622;2023-02-28T11:55:44;100423.69;;;10.69;100.00
12203;BME280;6164;42.178;24.622;2023-02-28T11:58:17;100429.63;;;10.71;100.00
12203;BME280;6164;42.178;24.622;2023-02-28T12:00:54;100447.06;;;10.64;100.00
12203;BME280;6164;42.178;24.622;2023-02-28T12:03:27;100442.06;;;10.61;100.00
12203;BME280;6164;42.178;24.622;2023-02-28T12:06:01;100453.06;;;10.56;100.00
12203;BME280;6164;42.178;24.622;2023-02-28T12:08:42;100451.97;;;10.49;100.00
12203;BME280;6164;42.178;24.622;2023-02-28T12:11:11;100453.13;;;10.47;100.00
12203;BME280;6164;42.178;24.622;2023-02-28T12:13:42;100453.03;;;10.39;100.00
12203;BME280;6164;42.178;24.622;2023-02-28T12:16:29;100451.78;;;10.33;100.00
12203;BME280;6164;42.178;24.622;2023-02-28T12:19:03;100446.81;;;10.30;100.00
12203;BME280;6164;42.178;24.622;2023-02-28T12:21:33;100441.28;;;10.24;100.00
12203;BME280;6164;42.178;24.622;2023-02-28T12:24:14;100448.66;;;10.20;100.00
12203;BME280;6164;42.178;24.622;2023-02-28T12:26:46;100456.03;;;10.17;100.00
12203;BME280;6164;42.178;24.622;2023-02-28T12:29:14;100455.88;;;10.18;100.00
12203;BME280;6164;42.178;24.622;2023-02-28T12:31:45;100455.06;;;10.18;100.00
12203;BME280;6164;42.178;24.622;2023-02-28T12:34:17;100447.53;;;10.23;100.00
12203;BME280;6164;42.178;24.622;2023-02-28T12:36:45;100446.97;;;10.29;100.00
12203;BME280;6164;42.178;24.622;2023-02-28T12:39:15;100453.50;;;10.25;100.00
12203;BME280;6164;42.178;24.622;2023-02-28T12:41:45;100461.31;;;10.17;100.00
12203;BME280;6164;42.178;24.622;2023-02-28T12:44:12;100463.13;;;10.16;100.00
12203;BME280;6164;42.178;24.622;2023-02-28T12:46:41;100457.16;;;10.14;100.00
12203;BME280;6164;42.178;24.622;2023-02-28T12:49:09;100445.22;;;10.10;100.00
12203;BME280;6164;42.178;24.622;2023-02-28T12:51:38;100446.06;;;10.11;100.00
12203;BME280;6164;42.178;24.622;2023-02-28T12:54:09;100444.38;;;10.10;100.00
12203;BME280;6164;42.178;24.622;2023-02-28T12:56:42;100457.44;;;10.11;100.00